Time;durP1;ratioP1;P1;durP2;ratioP2;P2;SDS_P1;SDS_P2;PMS_P1;PMS_P2;Temp;Humidity;BMP_temperature;BMP_pressure;BME280_temperature;BME280_humidity;BME280_pressure;Samples;Min_cycle;Max_cycle;Signal;HPM_P1;HPM_P2
2022/09/10 00:00:42;;;;;;;4.15;2.50;;;;;;;24.40;49.58;100934.13;4997901;28;20042;-75
2022/09/10 00:03:09;;;;;;;4.88;2.53;;;;;;;24.36;49.61;100928.41;5001280;28;20407;-76
2022/09/10 00:05:40;;;;;;;5.95;2.70;;;;;;;24.37;49.91;100934.53;4998611;28;20054;-76
2022/09/10 00:08:06;;;;;;;4.28;2.50;;;;;;;24.35;49.81;100926.75;4998902;28;20041;-76
2022/09/10 00:10:41;;;;;;;6.03;2.60;;;;;;;24.34;49.58;100933.13;4999379;28;20065;-76
2022/09/10 00:13:08;;;;;;;4.60;2.85;;;;;;;24.18;49.54;100920.19;5001023;28;20042;-76
2022/09/10 00:15:41;;;;;;;3.80;2.80;;;;;;;24.31;49.70;100940.69;5001469;28;20562;-76
2022/09/10 00:18:08;;;;;;;2.67;2.47;;;;;;;24.31;49.66;100941.50;5000308;28;20033;-75
2022/09/10 00:20:43;;;;;;;3.13;2.17;;;;;;;24.29;49.79;100942.75;5002119;28;20073;-76
2022/09/10 00:23:09;;;;;;;4.93;3.20;;;;;;;24.29;49.61;100937.44;4999526;28;20050;-76
2022/09/10 00:25:34;;;;;;;4.03;2.65;;;;;;;24.27;49.98;100936.78;4993517;28;20057;-76
2022/09/10 00:28:01;;;;;;;3.78;2.67;;;;;;;24.24;49.97;100934.53;4998653;28;20053;-76
2022/09/10 00:30:26;;;;;;;4.63;3.03;;;;;;;24.17;49.75;100933.72;4981224;28;20034;-76
2022/09/10 00:32:53;;;;;;;3.47;2.58;;;;;;;24.20;49.95;100936.78;4990669;28;20061;-77
2022/09/10 00:35:19;;;;;;;3.85;2.58;;;;;;;24.18;50.05;100938.81;5000691;28;20037;-77
2022/09/10 00:37:45;;;;;;;3.60;2.60;;;;;;;24.18;49.92;100938.81;4981649;28;20241;-76
2022/09/10 00:40:12;;;;;;;5.45;3.20;;;;;;;24.16;50.18;100942.72;4999664;28;20034;-76
2022/09/10 00:42:42;;;;;;;5.30;2.72;;;;;;;24.14;50.22;100952.75;4978865;28;20046;-76
2022/09/10 00:45:14;;;;;;;;;;;;;;;24.09;50.09;100951.53;4998539;28;20038;-76
2022/09/10 00:47:41;;;;;;;4.75;2.55;;;;;;;24.07;50.23;100950.94;4997153;28;19979;-76
2022/09/10 00:50:27;;;;;;;3.88;2.50;;;;;;;24.05;50.24;100944.97;4998235;28;20125;-76
2022/09/10 00:52:57;;;;;;;6.38;2.83;;;;;;;24.04;50.30;100946.00;4998425;28;20033;-76
2022/09/10 00:55:23;;;;;;;4.53;2.30;;;;;;;23.96;50.05;100934.75;4998011;28;20045;-76
2022/09/10 00:57:53;;;;;;;5.22;3.10;;;;;;;24.01;50.22;100942.94;5000661;28;20396;-76
2022/09/10 01:00:19;;;;;;;6.85;3.15;;;;;;;23.99;50.23;100943.13;4983055;28;20030;-76
2022/09/10 01:02:45;;;;;;;3.78;2.47;;;;;;;24.00;50.33;100952.75;4997842;28;20042;-76
2022/09/10 01:05:13;;;;;;;4.05;2.78;;;;;;;23.97;50.33;100950.50;4993571;28;20034;-76
2022/09/10 01:07:39;;;;;;;3.95;2.85;;;;;;;23.96;50.45;100948.03;4981112;28;20053;-76
2022/09/10 01:10:20;;;;;;;3.92;2.70;;;;;;;23.94;50.43;100948.25;4996500;28;20041;-76
2022/09/10 01:12:56;;;;;;;3.38;2.42;;;;;;;23.93;50.50;100951.13;4993481;28;20049;-76
2022/09/10 01:15:23;;;;;;;3.53;2.30;;;;;;;23.92;50.41;100949.47;4998669;28;20085;-76
2022/09/10 01:17:51;;;;;;;3.88;2.55;;;;;;;23.91;50.58;100948.66;4979935;28;20050;-76
2022/09/10 01:20:39;;;;;;;3.20;2.47;;;;;;;23.88;50.61;100942.91;4981529;28;20059;-76
2022/09/10 01:23:43;;;;;;;4.20;2.70;;;;;;;23.87;50.75;100946.59;5000456;28;20029;-76
2022/09/10 01:26:48;;;;;;;3.63;2.50;;;;;;;23.86;50.56;100952.94;4929048;28;20054;-76
2022/09/10 01:29:23;;;;;;;4.78;2.50;;;;;;;23.84;50.61;100950.47;4983181;28;20036;-75
2022/09/10 01:31:52;;;;;;;3.33;2.50;;;;;;;23.83;50.63;100953.34;4984120;28;20157;-75
2022/09/10 01:34:28;;;;;;;;;;;;;;;23.83;50.73;100958.66;4982741;28;20444;-75
2022/09/10 01:37:03;;;;;;;3.35;2.70;;;;;;;23.77;50.75;100947.81;4981638;28;19952;-75
2022/09/10 01:39:29;;;;;;;2.90;2.50;;;;;;;23.78;50.54;100959.28;4995436;28;20049;-75
2022/09/10 01:41:57;;;;;;;5.60;2.88;;;;;;;23.79;50.56;100960.91;4984133;28;20107;-75
2022/09/10 01:44:49;;;;;;;3.92;2.50;;;;;;;23.78;50.63;100961.94;4993929;28;20074;-75
2022/09/10 01:47:48;;;;;;;4.68;2.85;;;;;;;23.76;50.82;100966.66;4999428;28;20041;-75
2022/09/10 01:50:33;;;;;;;4.18;2.40;;;;;;;23.74;50.86;100953.56;4996277;28;20034;-75
2022/09/10 01:53:20;;;;;;;5.00;2.42;;;;;;;23.74;50.70;100958.88;4998164;28;20081;-75
2022/09/10 01:55:52;;;;;;;3.70;2.72;;;;;;;23.74;50.86;100961.53;4981911;28;20034;-75
2022/09/10 01:58:33;;;;;;;3.40;2.45;;;;;;;23.73;50.60;100961.75;4996239;28;20034;-75
2022/09/10 02:01:24;;;;;;;4.80;2.67;;;;;;;23.73;50.88;100961.75;4981478;28;20041;-77
2022/09/10 02:03:55;;;;;;;3.30;2.70;;;;;;;23.70;50.86;100960.31;4996967;28;20034;-75
2022/09/10 02:06:26;;;;;;;2.97;2.42;;;;;;;23.72;50.75;100960.09;4984139;28;20687;-75
2022/09/10 02:08:55;;;;;;;6.32;2.40;;;;;;;23.65;50.82;100951.28;4996298;28;20045;-76
2022/09/10 02:11:21;;;;;;;3.88;2.47;;;;;;;23.69;50.82;100955.16;4983424;28;20036;-75
2022/09/10 02:13:49;;;;;;;4.20;2.45;;;;;;;23.68;50.82;100959.66;4998337;28;20080;-75
2022/09/10 02:16:53;;;;;;;4.07;2.45;;;;;;;23.68;50.82;100962.31;4985764;28;20041;-75
2022/09/10 02:19:19;;;;;;;3.88;2.65;;;;;;;23.68;50.88;100967.63;4983315;28;20030;-75
2022/09/10 02:21:49;;;;;;;;;;;;;;;23.68;50.93;100966.81;4979863;28;20042;-75
2022/09/10 02:24:15;;;;;;;4.13;2.88;;;;;;;23.66;50.78;100969.69;4999507;28;19967;-75
2022/09/10 02:26:42;;;;;;;5.30;2.63;;;;;;;23.64;50.80;100966.41;4998673;28;20045;-75
2022/09/10 02:29:10;;;;;;;3.10;2.70;;;;;;;23.63;50.75;100962.13;4981604;28;20591;-75
2022/09/10 02:31:37;;;;;;;3.88;2.78;;;;;;;23.66;50.96;100963.53;4983596;28;20519;-75
2022/09/10 02:34:03;;;;;;;3.55;2.42;;;;;;;23.64;50.79;100965.59;4997128;28;20046;-75
2022/09/10 02:36:30;;;;;;;3.70;2.60;;;;;;;23.64;51.00;100962.94;4980735;28;20072;-75
2022/09/10 02:39:02;;;;;;;5.00;2.67;;;;;;;23.64;50.92;100960.28;4984786;28;20061;-75
2022/09/10 02:41:29;;;;;;;4.13;2.65;;;;;;;23.63;50.99;100966.63;4997203;28;20051;-76
2022/09/10 02:43:54;;;;;;;4.35;2.40;;;;;;;23.62;51.01;100964.97;4997997;28;20448;-75
2022/09/10 02:46:20;;;;;;;5.78;2.67;;;;;;;23.61;51.09;100963.34;4996325;28;20077;-75
2022/09/10 02:48:46;;;;;;;3.75;2.40;;;;;;;23.61;51.04;100960.69;4981281;28;20053;-76
2022/09/10 02:51:12;;;;;;;3.75;2.80;;;;;;;23.61;50.89;100958.03;4981732;28;20025;-76
2022/09/10 02:53:38;;;;;;;4.65;2.70;;;;;;;23.59;51.00;100962.72;4983738;28;20105;-76
2022/09/10 02:56:06;;;;;;;3.92;2.60;;;;;;;23.60;51.04;100964.38;4981171;28;20042;-76
2022/09/10 02:58:32;;;;;;;4.03;2.63;;;;;;;23.60;51.09;100959.03;4981160;28;20506;-76
2022/09/10 03:01:09;;;;;;;3.92;2.60;;;;;;;23.59;51.00;100963.53;4982038;28;20471;-77
2022/09/10 03:03:36;;;;;;;4.18;2.60;;;;;;;23.59;51.07;100960.06;4981585;28;20037;-75
2022/09/10 03:06:03;;;;;;;5.25;2.70;;;;;;;23.59;51.02;100957.41;4995028;28;20046;-75
2022/09/10 03:08:31;;;;;;;3.50;2.80;;;;;;;23.57;51.04;100956.78;4979969;28;20049;-75
2022/09/10 03:10:58;;;;;;;4.88;3.40;;;;;;;23.58;50.97;100958.44;4965225;28;20038;-75
2022/09/10 03:13:28;;;;;;;4.07;2.95;;;;;;;23.58;50.93;100961.09;4996238;28;20745;-75
2022/09/10 03:15:57;;;;;;;3.92;2.90;;;;;;;23.57;51.11;100962.13;4995427;28;20026;-75
2022/09/10 03:18:24;;;;;;;5.30;3.25;;;;;;;23.51;51.01;100958.38;4994347;28;20038;-75
2022/09/10 03:20:50;;;;;;;4.05;2.80;;;;;;;23.55;51.17;100970.25;4997788;28;20038;-75
2022/09/10 03:23:16;;;;;;;4.43;2.97;;;;;;;23.56;51.13;100965.75;4996442;28;20168;-75
2022/09/10 03:25:42;;;;;;;3.25;2.85;;;;;;;23.51;51.23;100966.34;4980151;28;20731;-75
2022/09/10 03:28:09;;;;;;;5.70;3.53;;;;;;;23.54;50.96;100973.94;5000439;28;20036;-75
2022/09/10 03:30:36;;;;;;;3.78;2.85;;;;;;;23.53;50.93;100966.97;4981990;28;20543;-75
2022/09/10 03:33:03;;;;;;;4.68;3.10;;;;;;;23.53;50.88;100964.31;4982226;28;20156;-75
2022/09/10 03:35:29;;;;;;;5.88;3.40;;;;;;;23.53;51.10;100972.31;4998149;28;20071;-75
2022/09/10 03:37:54;;;;;;;3.95;2.92;;;;;;;23.52;51.16;100962.69;4977689;28;20053;-76
2022/09/10 03:40:21;;;;;;;6.13;3.15;;;;;;;23.52;50.95;100971.47;4977506;28;20038;-75
2022/09/10 03:42:47;;;;;;;6.25;3.65;;;;;;;23.52;51.05;100970.66;4994183;28;20161;-76
2022/09/10 03:45:12;;;;;;;3.88;2.97;;;;;;;23.50;51.05;100972.69;4998460;28;20196;-75
2022/09/10 03:47:39;;;;;;;4.53;3.47;;;;;;;23.43;51.06;100966.53;4996143;28;20042;-75
2022/09/10 03:50:06;;;;;;;6.88;3.30;;;;;;;23.46;51.01;100969.59;4980173;28;20039;-75
2022/09/10 03:52:31;;;;;;;3.78;2.90;;;;;;;23.49;51.07;100976.34;5000111;28;20037;-75
2022/09/10 03:54:57;;;;;;;5.55;3.38;;;;;;;23.49;51.24;100976.34;4982618;28;20084;-75
2022/09/10 03:57:24;;;;;;;4.20;3.20;;;;;;;23.50;50.97;100972.69;4996046;28;20049;-77
2022/09/10 03:59:51;;;;;;;6.38;3.83;;;;;;;23.49;51.15;100973.69;4982118;28;20121;-75
2022/09/10 04:02:17;;;;;;;5.60;3.95;;;;;;;23.42;51.04;100964.91;4979253;28;20042;-75
2022/09/10 04:04:44;;;;;;;6.50;4.05;;;;;;;23.48;51.04;100970.22;4980257;28;20492;-75
2022/09/10 04:07:09;;;;;;;6.25;3.38;;;;;;;23.49;50.97;100976.34;4997211;28;20053;-75
2022/09/10 04:09:35;;;;;;;6.00;3.67;;;;;;;23.43;51.04;100964.69;4981023;28;20085;-75
2022/09/10 04:12:02;;;;;;;4.63;3.50;;;;;;;23.46;50.93;100966.13;4982351;28;20030;-76
2022/09/10 04:14:29;;;;;;;6.57;3.58;;;;;;;23.45;50.99;100965.31;4995573;28;20092;-76
2022/09/10 04:16:57;;;;;;;4.80;3.45;;;;;;;23.45;51.05;100960.00;4992441;28;20053;-75
2022/09/10 04:19:25;;;;;;;5.10;3.47;;;;;;;23.45;51.24;100961.84;4994243;28;20766;-76
2022/09/10 04:21:51;;;;;;;5.30;3.83;;;;;;;23.42;51.05;100963.06;4978059;28;20049;-75
2022/09/10 04:24:18;;;;;;;6.82;4.00;;;;;;;23.45;51.23;100965.31;4979956;28;20033;-75
2022/09/10 04:26:44;;;;;;;7.15;3.53;;;;;;;23.45;50.93;100967.16;4995113;28;20132;-75
2022/09/10 04:29:11;;;;;;;4.03;3.33;;;;;;;23.43;51.06;100972.66;4981901;28;20069;-75
2022/09/10 04:31:37;;;;;;;5.50;3.72;;;;;;;23.43;51.24;100967.34;4983856;28;20030;-75
2022/09/10 04:34:09;;;;;;;8.20;3.95;;;;;;;23.43;51.21;100975.31;4982911;28;20104;-74
2022/09/10 04:36:35;;;;;;;5.70;4.18;;;;;;;23.43;51.17;100975.31;4986507;28;20038;-75
2022/09/10 04:39:01;;;;;;;5.82;3.55;;;;;;;23.41;51.07;100974.72;4997083;28;20366;-75
2022/09/10 04:41:27;;;;;;;5.03;3.33;;;;;;;23.42;51.19;100986.97;4984386;28;20073;-75
2022/09/10 04:43:53;;;;;;;4.85;3.70;;;;;;;23.42;51.34;100986.16;4997940;28;20046;-75
2022/09/10 04:46:19;;;;;;;5.38;3.40;;;;;;;23.42;51.13;100988.81;4985621;28;20045;-75
2022/09/10 04:48:48;;;;;;;5.80;3.72;;;;;;;23.41;51.16;100988.00;4995669;28;20650;-75
2022/09/10 04:51:17;;;;;;;5.00;3.40;;;;;;;23.38;51.28;100991.06;4984098;28;20121;-77
2022/09/10 04:53:45;;;;;;;4.80;3.25;;;;;;;23.40;51.34;100993.50;4984910;28;20482;-77
2022/09/10 04:56:11;;;;;;;4.93;3.85;;;;;;;23.38;51.13;100990.25;4982806;28;20572;-77
2022/09/10 04:58:37;;;;;;;5.97;3.78;;;;;;;23.40;51.10;100996.16;5002335;28;20034;-77
2022/09/10 05:01:02;;;;;;;4.22;3.50;;;;;;;23.38;51.30;100991.06;4967356;28;20042;-77
2022/09/10 05:03:29;;;;;;;6.03;3.75;;;;;;;23.38;51.28;101000.88;4981246;28;20119;-78
2022/09/10 05:05:54;;;;;;;6.63;4.30;;;;;;;23.37;51.37;101000.06;5000743;28;20075;-77
2022/09/10 05:08:20;;;;;;;5.05;3.53;;;;;;;23.34;51.40;100995.13;4980655;28;20369;-77
2022/09/10 05:10:52;;;;;;;5.65;4.03;;;;;;;23.37;51.42;101002.72;4986101;28;20040;-76
2022/09/10 05:13:18;;;;;;;4.30;3.42;;;;;;;23.35;51.23;100995.97;4982427;28;20029;-76
2022/09/10 05:15:44;;;;;;;5.93;3.90;;;;;;;23.36;51.23;100995.75;4985862;28;20037;-76
2022/09/10 05:18:11;;;;;;;5.30;3.63;;;;;;;23.37;51.22;101007.22;4985003;28;20045;-77
2022/09/10 05:20:37;;;;;;;6.13;3.97;;;;;;;23.34;51.48;101002.25;4985017;28;20033;-77
2022/09/10 05:23:03;;;;;;;5.22;3.72;;;;;;;23.36;51.35;101005.56;5000636;28;20114;-77
2022/09/10 05:25:29;;;;;;;8.20;4.43;;;;;;;23.37;51.20;101004.56;4983670;28;20511;-77
2022/09/10 05:27:56;;;;;;;4.78;3.33;;;;;;;23.36;51.35;101001.06;4986458;28;20029;-77
2022/09/10 05:30:21;;;;;;;7.47;3.92;;;;;;;23.36;51.42;101003.72;4968428;28;20560;-76
2022/09/10 05:32:48;;;;;;;4.13;3.17;;;;;;;23.36;51.39;101006.38;4983924;28;20034;-77
2022/09/10 05:35:20;;;;;;;4.22;3.47;;;;;;;23.33;51.44;101006.75;4999510;28;20647;-77
2022/09/10 05:37:49;;;;;;;5.03;3.65;;;;;;;23.36;51.37;101018.84;4951819;28;20159;-77
2022/09/10 05:40:15;;;;;;;5.53;3.55;;;;;;;23.27;51.43;101001.44;4981874;28;20033;-77
2022/09/10 05:42:41;;;;;;;6.57;4.00;;;;;;;23.34;51.26;101010.22;4994579;28;20113;-77
2022/09/10 05:45:09;;;;;;;4.22;3.30;;;;;;;23.33;51.15;101011.25;4983160;28;20408;-77
2022/09/10 05:47:36;;;;;;;5.05;4.10;;;;;;;23.33;51.28;101012.06;4983884;28;20610;-77
2022/09/10 05:50:03;;;;;;;5.20;3.50;;;;;;;23.34;51.46;101012.88;4984980;28;20072;-76
2022/09/10 05:52:29;;;;;;;5.10;3.67;;;;;;;23.33;51.24;101020.03;4980736;28;20156;-77
2022/09/10 05:54:59;;;;;;;5.30;3.55;;;;;;;23.31;51.33;101016.78;4995388;28;20124;-76
2022/09/10 05:57:25;;;;;;;4.78;3.80;;;;;;;23.33;51.16;101024.53;4994035;28;20425;-76
2022/09/10 05:59:51;;;;;;;4.78;4.03;;;;;;;23.32;51.25;101029.03;4997117;28;20536;-77
2022/09/10 06:02:18;;;;;;;6.47;4.13;;;;;;;23.29;51.28;101029.44;4984782;28;20034;-76
2022/09/10 06:04:44;;;;;;;8.55;3.78;;;;;;;23.31;51.54;101030.06;4998358;28;20038;-76
2022/09/10 06:07:10;;;;;;;4.57;3.40;;;;;;;23.31;51.34;101034.53;4984691;28;20042;-77
2022/09/10 06:09:35;;;;;;;5.57;3.53;;;;;;;23.31;51.42;101040.69;4998103;28;20034;-76
2022/09/10 06:12:10;;;;;;;9.15;4.68;;;;;;;23.30;51.33;101048.84;4999656;28;20042;-76
2022/09/10 06:14:36;;;;;;;5.57;3.95;;;;;;;23.31;51.23;101053.97;4995575;28;20480;-76
2022/09/10 06:17:02;;;;;;;5.03;3.83;;;;;;;23.28;51.38;101057.03;4980440;28;20749;-75
2022/09/10 06:19:29;;;;;;;4.00;3.50;;;;;;;23.30;51.28;101062.97;4992113;28;20061;-77
2022/09/10 06:21:56;;;;;;;5.32;4.07;;;;;;;23.29;51.28;101057.84;4999925;28;20244;-76
2022/09/10 06:24:23;;;;;;;5.00;3.50;;;;;;;23.30;51.35;101070.94;4977931;28;20385;-77
2022/09/10 06:26:53;;;;;;;7.25;4.03;;;;;;;23.29;51.26;101074.59;4977899;28;20057;-79
2022/09/10 06:29:21;;;;;;;5.82;3.80;;;;;;;23.29;51.25;101079.91;4978468;28;20046;-76
2022/09/10 06:31:47;;;;;;;5.82;4.03;;;;;;;23.09;51.03;101044.47;4977279;28;20061;-76
2022/09/10 06:34:13;;;;;;;6.30;4.25;;;;;;;23.26;51.24;101074.19;4979081;28;20034;-76
2022/09/10 06:36:38;;;;;;;4.72;3.53;;;;;;;23.25;51.62;101069.88;4998476;28;20108;-77
2022/09/10 06:39:06;;;;;;;4.22;3.70;;;;;;;23.27;51.34;101076.63;4990415;28;20031;-76
2022/09/10 06:41:47;;;;;;;5.55;3.55;;;;;;;23.27;51.23;101076.63;4975090;28;20038;-76
2022/09/10 06:44:28;;;;;;;4.07;3.28;;;;;;;23.28;51.56;101080.13;4973352;28;20038;-77
2022/09/10 06:47:09;;;;;;;5.40;3.63;;;;;;;23.26;51.39;101085.63;4968298;28;20154;-76
2022/09/10 06:49:35;;;;;;;6.18;3.95;;;;;;;23.20;51.28;101068.66;4975531;28;20105;-76
2022/09/10 06:52:01;;;;;;;5.13;3.55;;;;;;;23.25;51.34;101086.66;4974372;28;20031;-76
2022/09/10 06:54:27;;;;;;;6.18;3.45;;;;;;;23.25;51.22;101080.50;4974718;28;20042;-76
2022/09/10 06:56:56;;;;;;;4.63;3.30;;;;;;;23.19;51.42;101069.66;4975170;28;20092;-76
2022/09/10 06:59:24;;;;;;;5.35;3.50;;;;;;;23.25;51.50;101083.16;4980093;28;20042;-77
2022/09/10 07:01:49;;;;;;;7.78;3.55;;;;;;;23.26;51.60;101084.81;4976298;28;20840;-76
2022/09/10 07:04:16;;;;;;;5.43;3.63;;;;;;;23.25;51.56;101081.34;4961304;28;20065;-77
2022/09/10 07:06:44;;;;;;;6.03;3.80;;;;;;;23.25;51.50;101083.16;4977707;28;20034;-76
2022/09/10 07:09:13;;;;;;;4.75;3.85;;;;;;;23.23;51.33;101082.56;4977854;28;20034;-76
2022/09/10 07:12:00;;;;;;;5.15;3.88;;;;;;;23.24;51.52;101092.97;4978324;28;20125;-76
2022/09/10 07:14:29;;;;;;;4.53;3.78;;;;;;;23.25;51.40;101096.47;4979599;28;20464;-76
2022/09/10 07:16:56;;;;;;;6.50;3.80;;;;;;;23.24;51.60;101102.78;4977713;28;20030;-76
2022/09/10 07:19:23;;;;;;;6.15;3.70;;;;;;;23.25;51.42;101099.13;4977315;28;20045;-76
2022/09/10 07:21:49;;;;;;;5.65;3.88;;;;;;;23.24;51.50;101100.13;4977314;28;20046;-77
2022/09/10 07:24:15;;;;;;;4.95;3.85;;;;;;;23.19;51.64;101096.22;4994160;28;20507;-77
2022/09/10 07:26:56;;;;;;;4.97;3.75;;;;;;;23.23;51.56;101099.31;4975045;28;20088;-77
2022/09/10 07:29:22;;;;;;;4.95;3.50;;;;;;;23.22;51.32;101105.66;4973979;28;20551;-75
2022/09/10 07:31:47;;;;;;;8.35;3.80;;;;;;;23.12;51.41;101090.03;4975652;28;20034;-75
2022/09/10 07:34:19;;;;;;;4.70;3.72;;;;;;;23.24;51.43;101105.44;4992334;28;20121;-76
2022/09/10 07:36:45;;;;;;;4.60;3.55;;;;;;;23.24;51.63;101116.06;4993327;28;20130;-76
2022/09/10 07:39:11;;;;;;;6.00;3.80;;;;;;;23.23;51.39;101106.47;4978559;28;20130;-79
2022/09/10 07:41:39;;;;;;;6.25;3.80;;;;;;;23.21;51.52;101111.97;4981436;28;20038;-78
2022/09/10 07:44:08;;;;;;;4.70;3.80;;;;;;;23.22;51.56;101110.97;4974715;28;20034;-79
2022/09/10 07:46:41;;;;;;;5.18;3.45;;;;;;;23.22;51.31;101110.97;4976987;28;20038;-78
2022/09/10 07:49:10;;;;;;;7.30;3.75;;;;;;;23.19;51.38;101109.50;4961294;28;20042;-78
2022/09/10 07:51:38;;;;;;;4.32;3.75;;;;;;;23.13;51.43;101099.66;4971945;28;20061;-78
2022/09/10 07:54:04;;;;;;;4.55;3.70;;;;;;;23.21;51.39;101115.44;4975816;28;20077;-78
2022/09/10 07:56:36;;;;;;;4.63;3.92;;;;;;;23.15;51.31;101110.91;4977986;28;20034;-78
2022/09/10 07:59:05;;;;;;;4.30;3.70;;;;;;;23.20;51.55;101126.28;4978411;28;20088;-78
2022/09/10 08:01:37;;;;;;;4.40;3.70;;;;;;;23.20;51.64;101127.09;4976649;28;20044;-78
2022/09/10 08:04:05;;;;;;;6.22;4.07;;;;;;;23.16;51.60;101128.50;4977273;28;20046;-78
2022/09/10 08:06:32;;;;;;;4.63;3.67;;;;;;;23.14;51.52;101130.50;4981646;28;20120;-78
2022/09/10 08:09:01;;;;;;;5.97;3.75;;;;;;;23.19;51.39;101144.06;4979637;28;20481;-79
2022/09/10 08:11:27;;;;;;;5.75;4.00;;;;;;;23.19;51.35;101143.22;4990057;28;20034;-79
2022/09/10 08:13:55;;;;;;;5.00;3.72;;;;;;;23.19;51.62;101138.75;4998590;28;20488;-79
2022/09/10 08:16:27;;;;;;;6.55;3.75;;;;;;;23.20;51.37;101148.34;4985404;28;20054;-79
2022/09/10 08:18:56;;;;;;;6.10;3.78;;;;;;;23.20;51.35;101152.84;4986941;28;20037;-80
2022/09/10 08:21:23;;;;;;;6.82;4.38;;;;;;;23.22;51.52;101153.47;4980253;28;20052;-79
2022/09/10 08:23:53;;;;;;;7.25;3.47;;;;;;;23.21;51.61;101154.47;4969603;28;20041;-79
2022/09/10 08:26:22;;;;;;;5.70;3.70;;;;;;;23.21;51.54;101155.31;4982340;28;20054;-79
2022/09/10 08:28:54;;;;;;;6.53;4.00;;;;;;;23.10;51.62;101139.06;4981618;28;20576;-79
2022/09/10 08:31:21;;;;;;;5.93;4.05;;;;;;;23.20;51.56;101163.47;4984866;28;20026;-79
2022/09/10 08:33:55;;;;;;;7.70;4.32;;;;;;;23.20;51.25;101166.94;4979913;28;20027;-79
2022/09/10 08:36:22;;;;;;;4.68;3.60;;;;;;;23.15;51.42;101157.91;4997588;28;20496;-79
2022/09/10 08:38:49;;;;;;;5.55;4.07;;;;;;;23.21;51.49;101168.59;5000081;28;20034;-79
2022/09/10 08:41:52;;;;;;;6.63;3.67;;;;;;;23.23;51.49;101164.91;4996865;28;20030;-83
2022/09/10 08:44:48;;;;;;;6.38;3.83;;;;;;;23.23;51.54;101168.38;4955622;28;20053;-83
2022/09/10 08:47:28;;;;;;;7.07;4.63;;;;;;;23.24;51.69;101172.69;4983350;28;20037;-83
2022/09/10 08:50:16;;;;;;;9.48;4.05;;;;;;;23.36;51.61;101171.16;4937869;28;20058;-78
2022/09/10 08:53:04;;;;;;;6.63;4.32;;;;;;;23.46;51.56;101174.25;4979080;28;20084;-84
2022/09/10 08:55:32;;;;;;;6.88;3.75;;;;;;;23.43;51.83;101179.16;4989269;28;20109;-83
2022/09/10 08:58:17;;;;;;;6.60;4.30;;;;;;;23.51;52.01;101192.28;4985644;28;20066;-83
2022/09/10 09:00:45;;;;;;;7.13;4.22;;;;;;;23.58;52.99;101184.38;4995962;28;20030;-81
2022/09/10 09:03:25;;;;;;;9.95;5.20;;;;;;;23.61;52.21;101194.63;4997582;28;21795;-82
2022/09/10 09:05:56;;;;;;;9.27;5.47;;;;;;;23.62;52.39;101201.56;4939677;28;20030;-79
2022/09/10 09:08:47;;;;;;;7.72;5.43;;;;;;;23.67;52.13;101202.63;4972692;28;20042;-80
2022/09/10 09:11:32;;;;;;;9.85;4.97;;;;;;;23.70;52.06;101209.41;4986170;28;20396;-78
2022/09/10 09:14:28;;;;;;;9.75;5.25;;;;;;;23.72;52.19;101205.53;4984426;28;20484;-78
2022/09/10 09:17:05;;;;;;;7.38;4.63;;;;;;;23.75;51.98;101206.97;4982722;28;20042;-78
2022/09/10 09:19:48;;;;;;;9.23;5.22;;;;;;;23.75;52.08;101210.47;4979947;28;20096;-77
2022/09/10 09:22:40;;;;;;;9.20;5.78;;;;;;;23.78;52.00;101210.06;4953813;28;20044;-78
2022/09/10 09:25:26;;;;;;;9.77;5.10;;;;;;;23.80;51.97;101216.00;4981444;28;20048;-79
2022/09/10 09:27:56;;;;;;;7.20;5.40;;;;;;;23.81;52.07;101211.50;4988298;28;20084;-79
2022/09/10 09:30:36;;;;;;;8.45;4.82;;;;;;;23.79;52.03;101210.88;4986185;28;20042;-78
2022/09/10 09:33:13;;;;;;;7.85;5.10;;;;;;;23.77;52.12;101212.91;4980451;28;20137;-78
2022/09/10 09:35:49;;;;;;;9.80;5.85;;;;;;;23.78;51.97;101211.91;4984423;28;20045;-77
2022/09/10 09:38:19;;;;;;;7.28;5.30;;;;;;;23.77;52.16;101218.22;4976651;28;20026;-78
2022/09/10 09:41:06;;;;;;;8.75;4.90;;;;;;;23.78;52.11;101217.22;4960504;28;20478;-80
2022/09/10 09:44:04;;;;;;;7.90;4.75;;;;;;;23.71;52.20;101206.56;4983337;28;20077;-78
2022/09/10 09:46:33;;;;;;;8.75;4.97;;;;;;;23.77;52.09;101226.22;4984154;28;20045;-78
2022/09/10 09:49:01;;;;;;;8.20;5.10;;;;;;;23.76;52.09;101229.88;4966255;28;20488;-79
2022/09/10 09:51:34;;;;;;;8.95;6.38;;;;;;;23.77;51.85;101227.03;4981401;28;20034;-78
2022/09/10 09:54:06;;;;;;;11.10;6.32;;;;;;;23.73;51.92;101224.97;4999795;28;20033;-79
2022/09/10 09:56:41;;;;;;;20.05;6.35;;;;;;;23.77;51.88;101231.53;4961313;28;20056;-78
2022/09/10 09:59:22;;;;;;;8.55;5.43;;;;;;;23.77;52.01;101232.34;5000653;28;20026;-78
2022/09/10 10:01:50;;;;;;;8.63;5.63;;;;;;;23.73;52.19;101223.13;4998707;28;20030;-79
2022/09/10 10:04:22;;;;;;;7.60;5.63;;;;;;;23.76;52.35;101225.41;4998586;28;20126;-79
2022/09/10 10:06:59;;;;;;;11.00;5.65;;;;;;;23.77;52.16;101227.03;5002158;28;20430;-79
2022/09/10 10:09:31;;;;;;;8.70;5.85;;;;;;;23.75;52.26;101229.06;4997685;28;20038;-78
2022/09/10 10:12:03;;;;;;;9.10;5.57;;;;;;;23.76;52.28;101232.56;4972893;28;20140;-78
2022/09/10 10:14:38;;;;;;;9.75;5.93;;;;;;;23.75;52.24;101233.56;5001487;28;20049;-79
2022/09/10 10:17:23;;;;;;;8.85;5.43;;;;;;;23.75;52.18;101231.72;4999509;28;20061;-79
2022/09/10 10:19:55;;;;;;;8.50;5.72;;;;;;;23.72;52.35;101229.47;4998911;28;20583;-79
2022/09/10 10:22:24;;;;;;;11.18;5.60;;;;;;;23.58;52.42;101203.00;4997247;28;20046;-79
2022/09/10 10:24:52;;;;;;;12.40;6.20;;;;;;;23.66;52.39;101216.13;4997798;28;20065;-79
2022/09/10 10:27:56;;;;;;;10.35;6.72;;;;;;;23.79;51.97;101226.84;4989149;28;20050;-74
2022/09/10 10:30:23;;;;;;;15.48;5.20;;;;;;;23.77;52.11;101223.56;4982670;28;20045;-79
2022/09/10 10:32:52;;;;;;;15.02;5.65;;;;;;;23.80;52.06;101231.13;4996535;28;20687;-80
2022/09/10 10:35:23;;;;;;;9.65;5.43;;;;;;;23.84;51.99;101236.88;4999640;28;20149;-80
2022/09/10 10:38:06;;;;;;;10.57;5.50;;;;;;;23.80;52.27;101234.63;5000272;28;20579;-80
2022/09/10 10:40:36;;;;;;;9.13;6.03;;;;;;;23.78;52.27;101233.16;4996777;28;20076;-80
2022/09/10 10:43:15;;;;;;;12.07;5.65;;;;;;;23.77;52.00;101234.19;4994345;28;20103;-80
2022/09/10 10:45:58;;;;;;;10.38;6.03;;;;;;;23.78;52.23;101234.00;4982067;28;20042;-80
2022/09/10 10:48:27;;;;;;;11.93;5.80;;;;;;;23.77;52.14;101237.66;4995880;28;20138;-80
2022/09/10 10:51:01;;;;;;;6.90;5.07;;;;;;;23.77;52.18;101231.53;4998507;28;20471;-79
2022/09/10 10:53:39;;;;;;;7.10;5.28;;;;;;;23.75;52.13;101229.06;4998947;28;22188;-80
2022/09/10 10:56:22;;;;;;;9.40;5.32;;;;;;;23.76;52.19;101232.56;5000587;28;20056;-80
2022/09/10 10:59:27;;;;;;;11.65;5.85;;;;;;;23.71;52.29;101230.50;4998271;28;20042;-79
2022/09/10 11:02:12;;;;;;;8.32;4.97;;;;;;;23.74;52.15;101231.94;4973270;28;20119;-76
2022/09/10 11:04:46;;;;;;;8.52;5.60;;;;;;;23.76;52.15;101233.38;5000467;28;20091;-76
2022/09/10 11:07:27;;;;;;;9.70;5.80;;;;;;;23.77;52.07;101228.88;4997076;28;20044;-76
2022/09/10 11:10:11;;;;;;;11.30;5.60;;;;;;;23.76;52.03;101224.56;5000263;28;20121;-76
2022/09/10 11:12:46;;;;;;;8.38;5.63;;;;;;;23.76;52.33;101222.72;4994415;28;20038;-76
2022/09/10 11:15:40;;;;;;;8.38;6.20;;;;;;;23.74;52.43;101226.63;4999464;28;20034;-76
2022/09/10 11:18:11;;;;;;;8.77;5.85;;;;;;;23.73;52.17;101223.13;4970408;28;20042;-72
2022/09/10 11:20:48;;;;;;;9.45;5.93;;;;;;;23.74;52.28;101222.13;4994236;28;20095;-72
2022/09/10 11:23:38;;;;;;;9.98;6.00;;;;;;;23.69;52.70;101216.53;4993098;28;20558;-70
2022/09/10 11:26:36;;;;;;;6.38;5.07;;;;;;;23.72;52.53;101220.66;4990704;28;20064;-72
2022/09/10 11:29:40;;;;;;;6.82;5.07;;;;;;;23.73;52.55;101223.13;4979254;28;20517;-71
2022/09/10 11:32:20;;;;;;;8.70;5.60;;;;;;;23.70;52.46;101214.72;4980994;28;20120;-70
2022/09/10 11:35:04;;;;;;;9.05;5.38;;;;;;;23.74;52.58;101226.63;4986973;28;20060;-70
2022/09/10 11:37:54;;;;;;;9.45;5.00;;;;;;;23.74;52.76;101218.63;4996579;28;20059;-70
2022/09/10 11:40:45;;;;;;;11.70;5.90;;;;;;;23.75;52.66;101222.94;4995431;28;20571;-70
2022/09/10 11:43:17;;;;;;;8.07;4.95;;;;;;;23.73;52.61;101220.47;4994041;28;20042;-70
2022/09/10 11:45:59;;;;;;;7.13;4.70;;;;;;;23.69;52.95;101213.88;4994983;28;20073;-67